Time;durP1;ratioP1;P1;durP2;ratioP2;P2;SDS_P1;SDS_P2;PMS_P1;PMS_P2;Temp;Humidity;BMP_temperature;BMP_pressure;BME280_temperature;BME280_humidity;BME280_pressure;Samples;Min_cycle;Max_cycle;Signal;HPM_P1;HPM_P2
2021/09/20 00:08:42;;;;;;;4.83;2.00;;;18.90;51.20;;;;;;20877667;28;80069;-70
2021/09/20 00:18:45;;;;;;;;;;;18.60;52.20;;;;;;20877472;28;80711;-71
2021/09/20 00:28:46;;;;;;;4.57;1.67;;;18.50;52.10;;;;;;20917525;28;80477;-71
2021/09/20 00:38:48;;;;;;;3.40;1.33;;;18.40;52.20;;;;;;20875590;28;80074;-71
2021/09/20 00:48:51;;;;;;;4.45;1.60;;;18.30;52.30;;;;;;20893111;28;80954;-71
2021/09/20 00:58:55;;;;;;;3.78;1.50;;;18.20;52.50;;;;;;20874252;28;80588;-72
2021/09/20 01:08:58;;;;;;;6.10;2.60;;;17.90;53.20;;;;;;20891888;28;81025;-70
2021/09/20 01:19:02;;;;;;;5.50;2.00;;;17.50;53.60;;;;;;20890626;28;80644;-71
2021/09/20 01:29:12;;;;;;;4.63;1.63;;;17.40;53.90;;;;;;20890319;28;81942;-72
2021/09/20 01:39:24;;;;;;;2.92;1.52;;;17.20;54.20;;;;;;20890526;28;82274;-71
2021/09/20 01:49:28;;;;;;;6.07;1.90;;;17.10;55.70;;;;;;20889136;28;80038;-71
2021/09/20 01:59:42;;;;;;;4.82;1.70;;;17.00;56.90;;;;;;20888495;28;81989;-71
2021/09/20 02:09:53;;;;;;;4.45;1.50;;;16.80;56.80;;;;;;20870287;28;80950;-70
2021/09/20 02:20:00;;;;;;;3.70;1.55;;;16.80;56.50;;;;;;20886570;27;80864;-70
2021/09/20 02:30:06;;;;;;;3.08;1.23;;;16.60;57.50;;;;;;20885576;27;80909;-71
2021/09/20 02:40:10;;;;;;;2.97;1.50;;;16.40;58.50;;;;;;20867521;28;81004;-71
2021/09/20 02:50:16;;;;;;;2.92;1.27;;;16.30;58.60;;;;;;20867951;28;82250;-71
2021/09/20 03:00:19;;;;;;;5.55;1.63;;;16.30;58.60;;;;;;20866083;28;80737;-71
2021/09/20 03:10:24;;;;;;;4.38;1.88;;;16.20;58.40;;;;;;20866458;28;80723;-72
2021/09/20 03:20:45;;;;;;;3.75;1.80;;;16.10;58.40;;;;;;20868880;28;82808;-70
2021/09/20 03:31:04;;;;;;;7.15;2.35;;;16.20;58.80;;;;;;20893065;27;81886;-71
2021/09/20 03:41:25;;;;;;;5.07;1.90;;;16.30;59.40;;;;;;20898071;28;81786;-71
2021/09/20 03:51:46;;;;;;;3.55;1.92;;;15.90;67.10;;;;;;20898148;28;82530;-70
2021/09/20 04:01:58;;;;;;;5.45;2.05;;;15.90;66.40;;;;;;20880639;28;81100;-70
2021/09/20 04:12:11;;;;;;;6.47;1.87;;;15.90;63.30;;;;;;20895416;28;81810;-70
2021/09/20 04:22:22;;;;;;;6.40;1.90;;;16.00;61.80;;;;;;20895416;28;81933;-70
2021/09/20 04:32:36;;;;;;;4.38;2.13;;;16.10;61.50;;;;;;20894077;28;80671;-70
2021/09/20 04:42:41;;;;;;;10.27;2.53;;;16.00;61.60;;;;;;20893185;27;80829;-71
2021/09/20 04:52:55;;;;;;;6.65;2.17;;;16.00;60.70;;;;;;20892497;28;81926;-70
2021/09/20 05:03:04;;;;;;;3.35;1.80;;;16.00;60.40;;;;;;20874643;28;80831;-71
2021/09/20 05:13:10;;;;;;;5.32;2.00;;;16.00;60.90;;;;;;20874052;27;81635;-70
2021/09/20 05:23:14;;;;;;;8.90;2.60;;;15.90;61.10;;;;;;20873558;28;81704;-74
2021/09/20 05:33:18;;;;;;;5.63;2.00;;;15.90;61.90;;;;;;20864031;28;82043;-69
2021/09/20 05:43:20;;;;;;;8.70;2.83;;;15.60;61.40;;;;;;20867956;28;81358;-68
2021/09/20 05:53:24;;;;;;;7.75;2.30;;;15.50;61.90;;;;;;20871268;27;82345;-70
2021/09/20 06:03:27;;;;;;;4.40;1.90;;;15.40;61.40;;;;;;20877207;28;81802;-69
2021/09/20 06:13:30;;;;;;;12.18;2.65;;;15.30;61.00;;;;;;20857938;27;80924;-66
2021/09/20 06:23:33;;;;;;;8.00;3.80;;;15.40;60.70;;;;;;20871810;28;81750;-67
2021/09/20 06:33:35;;;;;;;4.77;2.47;;;15.50;60.10;;;;;;20875354;28;81790;-63
2021/09/20 06:43:37;;;;;;;7.23;2.27;;;15.60;60.10;;;;;;20872618;27;81788;-63
2021/09/20 06:53:39;;;;;;;9.43;1.70;;;15.90;59.70;;;;;;20872597;28;81706;-61
2021/09/20 07:03:42;;;;;;;8.53;1.10;;;16.40;58.80;;;;;;20851201;28;81827;-62
2021/09/20 07:13:44;;;;;;;3.13;1.30;;;16.90;57.10;;;;;;20864930;28;81279;-61
2021/09/20 07:23:46;;;;;;;4.53;0.80;;;17.30;55.80;;;;;;20862963;28;81675;-64
2021/09/20 07:33:50;;;;;;;4.13;0.90;;;17.60;55.10;;;;;;20868503;28;82099;-62
2021/09/20 07:43:53;;;;;;;;;;;18.00;54.00;;;;;;20853351;28;81044;-65
2021/09/20 07:53:56;;;;;;;4.53;1.25;;;18.30;53.80;;;;;;20893352;28;81882;-64
2021/09/20 08:04:00;;;;;;;5.03;1.20;;;18.50;53.50;;;;;;20870393;28;81082;-66
2021/09/20 08:14:03;;;;;;;1.40;0.70;;;18.90;52.70;;;;;;20872371;27;81367;-64
2021/09/20 08:24:05;;;;;;;4.83;1.10;;;19.20;52.20;;;;;;20878934;28;81679;-63
2021/09/20 08:44:31;;;;;;;5.83;1.60;;;19.90;51.30;;;;;;20867038;28;81451;-62
2021/09/20 08:54:33;;;;;;;2.75;1.05;;;20.50;50.00;;;;;;20864023;28;82037;-62
2021/09/20 09:04:39;;;;;;;2.77;0.93;;;20.80;50.00;;;;;;20878463;28;81973;-61
2021/09/20 09:15:01;;;;;;;3.97;0.95;;;21.20;48.60;;;;;;20880619;28;81995;-62
2021/09/20 09:25:06;;;;;;;3.37;0.70;;;22.10;46.50;;;;;;20880384;28;80983;-66
2021/09/20 09:35:10;;;;;;;2.45;0.93;;;23.00;44.60;;;;;;20859505;28;82227;-62
2021/09/20 09:45:21;;;;;;;2.45;0.60;;;23.90;42.80;;;;;;20877360;28;81223;-62
2021/09/20 09:55:25;;;;;;;3.90;1.08;;;25.00;40.20;;;;;;20876674;28;81618;-67
2021/09/20 10:05:27;;;;;;;2.42;0.90;;;26.70;37.40;;;;;;20876058;27;81514;-63
2021/09/20 10:15:31;;;;;;;5.32;1.20;;;27.90;35.10;;;;;;20858061;27;81216;-62
2021/09/20 10:25:34;;;;;;;4.43;1.20;;;29.70;32.20;;;;;;20854731;28;81336;-62
2021/09/20 10:35:41;;;;;;;2.42;0.80;;;31.50;29.90;;;;;;20867031;27;80588;-62
2021/09/20 10:45:54;;;;;;;4.47;1.45;;;33.80;26.40;;;;;;20868423;28;81763;-61
2021/09/20 10:56:03;;;;;;;2.58;1.20;;;36.00;24.50;;;;;;20866705;28;81955;-70
2021/09/20 11:06:20;;;;;;;3.33;0.90;;;38.20;22.10;;;;;;20868134;28;81790;-61
2021/09/20 11:16:53;;;;;;;2.50;0.90;;;39.50;20.80;;;;;;20872208;28;81394;-62
2021/09/20 11:26:55;;;;;;;6.03;1.95;;;39.90;20.60;;;;;;20868916;28;81935;-61
2021/09/20 11:37:13;;;;;;;1.85;0.75;;;42.50;18.40;;;;;;20867168;28;82168;-62
2021/09/20 11:47:21;;;;;;;5.90;1.30;;;43.30;17.80;;;;;;20854988;28;80098;-69
2021/09/20 11:57:24;;;;;;;3.00;0.82;;;45.20;16.90;;;;;;20866970;28;80838;-65
2021/09/20 12:07:31;;;;;;;2.65;0.80;;;42.40;18.30;;;;;;20884168;28;81074;-68
2021/09/20 12:17:51;;;;;;;3.40;1.05;;;38.40;20.90;;;;;;20880968;28;82048;-62
2021/09/20 12:27:53;;;;;;;;;;;39.50;20.10;;;;;;20882867;28;81914;-63
2021/09/20 12:38:12;;;;;;;2.72;0.93;;;39.30;20.30;;;;;;20903270;28;79478;-66
2021/09/20 12:48:15;;;;;;;3.80;1.30;;;34.40;23.80;;;;;;20880793;28;81001;-66
2021/09/20 12:58:36;;;;;;;2.97;1.00;;;33.00;25.30;;;;;;20879044;27;81829;-70
2021/09/20 13:08:56;;;;;;;1.90;0.90;;;37.80;21.00;;;;;;20890398;28;80584;-66
2021/09/20 13:19:05;;;;;;;7.50;1.95;;;37.00;21.70;;;;;;20871336;28;80751;-63
2021/09/20 13:29:07;;;;;;;2.10;1.00;;;37.90;20.80;;;;;;20891497;28;82599;-63
2021/09/20 13:39:10;;;;;;;4.00;1.65;;;36.20;21.70;;;;;;20874372;28;79849;-63
2021/09/20 13:49:12;;;;;;;3.22;1.50;;;37.20;21.00;;;;;;20889181;28;80461;-63
2021/09/20 13:59:15;;;;;;;4.65;2.38;;;38.00;20.60;;;;;;20887857;28;80725;-63
2021/09/20 14:09:17;;;;;;;2.88;1.55;;;36.80;21.70;;;;;;20868594;27;81323;-62
2021/09/20 14:19:26;;;;;;;4.15;1.50;;;39.60;18.60;;;;;;20886739;28;80788;-63
2021/09/20 14:29:29;;;;;;;4.50;1.63;;;42.80;17.00;;;;;;20887368;28;80717;-62
2021/09/20 14:39:32;;;;;;;4.28;1.45;;;47.40;15.00;;;;;;20887003;28;81791;-63
2021/09/20 14:49:34;;;;;;;2.50;1.25;;;38.50;20.20;;;;;;20885854;28;80715;-63
2021/09/20 14:59:36;;;;;;;3.10;1.10;;;33.90;23.80;;;;;;20885251;28;80053;-65
2021/09/20 15:09:38;;;;;;;2.92;1.20;;;31.50;26.00;;;;;;20885744;28;81016;-63
2021/09/20 15:19:43;;;;;;;3.67;0.98;;;30.50;26.80;;;;;;20867877;27;81859;-63
2021/09/20 15:29:45;;;;;;;1.92;1.23;;;31.40;25.70;;;;;;20898367;28;80893;-63
2021/09/20 15:39:48;;;;;;;1.73;1.10;;;35.30;22.40;;;;;;20898146;28;81046;-65
2021/09/20 15:49:50;;;;;;;1.90;0.93;;;35.60;21.90;;;;;;20897225;28;80010;-65
2021/09/20 15:59:52;;;;;;;3.20;1.70;;;38.30;20.00;;;;;;20889572;28;80737;-67
2021/09/20 16:09:54;;;;;;;2.83;1.63;;;32.80;24.40;;;;;;20889876;28;80569;-68
2021/09/20 16:19:56;;;;;;;8.70;2.10;;;30.00;26.80;;;;;;20895015;28;80749;-69
2021/09/20 16:29:58;;;;;;;10.02;1.60;;;28.60;28.80;;;;;;20894342;28;80569;-67
2021/09/20 16:40:00;;;;;;;4.25;1.00;;;27.70;29.40;;;;;;20875672;28;80717;-66
2021/09/20 16:50:04;;;;;;;3.00;0.80;;;27.70;29.50;;;;;;20894317;28;80789;-69
2021/09/20 17:00:09;;;;;;;1.45;0.50;;;27.80;28.80;;;;;;20874424;28;82700;-67
2021/09/20 17:10:12;;;;;;;2.38;0.50;;;27.00;28.80;;;;;;20892315;28;81199;-67
2021/09/20 17:20:16;;;;;;;1.75;0.35;;;26.10;29.20;;;;;;20891875;28;81134;-69
2021/09/20 17:30:20;;;;;;;4.55;0.43;;;25.60;29.50;;;;;;20872955;28;81421;-69
2021/09/20 17:40:26;;;;;;;1.85;0.10;;;25.30;29.50;;;;;;20872209;28;80527;-70
2021/09/20 17:50:28;;;;;;;4.05;0.17;;;25.10;29.80;;;;;;20871424;28;80862;-70
2021/09/20 18:00:30;;;;;;;1.58;0.10;;;24.40;31.10;;;;;;20871508;28;81895;-73
2021/09/20 18:10:35;;;;;;;1.23;0.20;;;23.90;32.00;;;;;;20871524;28;80734;-75
2021/09/20 18:20:37;;;;;;;3.03;0.40;;;23.40;32.50;;;;;;20870481;28;81092;-71
2021/09/20 18:30:39;;;;;;;3.97;0.50;;;23.20;32.80;;;;;;20887843;28;81314;-73
2021/09/20 18:40:41;;;;;;;3.15;0.47;;;22.90;32.90;;;;;;20887846;28;81951;-74
2021/09/20 18:50:43;;;;;;;6.45;0.65;;;22.80;32.60;;;;;;20869089;28;82052;-71
2021/09/20 19:00:44;;;;;;;;;;;22.60;32.40;;;;;;20885192;28;80668;-71
2021/09/20 19:10:48;;;;;;;13.23;0.93;;;22.40;32.90;;;;;;20907402;28;80765;-74
2021/09/20 19:20:51;;;;;;;4.25;0.40;;;22.40;33.40;;;;;;20868126;28;80076;-73
2021/09/20 19:30:55;;;;;;;2.25;0.20;;;22.00;36.70;;;;;;20885394;28;80809;-81
2021/09/20 19:40:58;;;;;;;2.83;0.45;;;21.40;38.50;;;;;;20868218;28;81868;-75
2021/09/20 19:51:00;;;;;;;6.13;0.65;;;21.00;39.70;;;;;;20870087;28;82495;-73
2021/09/20 20:01:02;;;;;;;2.63;0.70;;;20.60;40.90;;;;;;20884835;28;81448;-74
2021/09/20 20:11:05;;;;;;;15.07;1.25;;;20.30;41.60;;;;;;20889782;27;80739;-73
2021/09/20 20:21:07;;;;;;;1.98;0.25;;;19.90;42.80;;;;;;20878994;28;81778;-74
2021/09/20 20:31:09;;;;;;;1.40;0.65;;;19.70;43.60;;;;;;20896743;28;81133;-73
2021/09/20 20:41:10;;;;;;;;;;;19.50;44.30;;;;;;20878968;28;80741;-72
2021/09/20 20:51:14;;;;;;;1.80;0.13;;;19.10;45.20;;;;;;20916614;28;81857;-72
2021/09/20 21:01:17;;;;;;;0.73;0.10;;;18.90;45.80;;;;;;20894196;28;79911;-76
2021/09/20 21:11:21;;;;;;;0.85;0.17;;;18.70;46.30;;;;;;20875524;28;80788;-71
2021/09/20 21:21:23;;;;;;;1.38;0.20;;;18.50;46.60;;;;;;20891847;27;80533;-74
2021/09/20 21:31:26;;;;;;;0.30;0.00;;;18.40;46.60;;;;;;20891017;28;80964;-71
2021/09/20 21:41:32;;;;;;;1.75;0.10;;;18.30;46.60;;;;;;20873536;28;80608;-75
2021/09/20 21:51:35;;;;;;;2.20;0.13;;;18.10;46.30;;;;;;20890980;28;80736;-71
2021/09/20 22:01:37;;;;;;;2.77;0.20;;;17.90;46.30;;;;;;20889941;28;80050;-72
2021/09/20 22:11:39;;;;;;;0.75;0.00;;;17.70;46.40;;;;;;20888486;28;81010;-72
2021/09/20 22:21:54;;;;;;;0.50;0.00;;;17.50;46.50;;;;;;20888801;28;82487;-74
2021/09/20 22:31:56;;;;;;;1.88;0.65;;;17.40;46.70;;;;;;20886055;28;81246;-75
2021/09/20 22:41:57;;;;;;;0.00;0.00;;;17.30;46.90;;;;;;20886144;28;81955;-72
2021/09/20 22:52:00;;;;;;;0.35;0.00;;;17.20;47.30;;;;;;20885700;28;81836;-73
2021/09/20 23:02:02;;;;;;;;;;;17.10;47.50;;;;;;20884913;28;80961;-73
2021/09/20 23:12:07;;;;;;;0.10;0.00;;;16.90;47.50;;;;;;20907601;28;75091;-73
2021/09/20 23:22:10;;;;;;;1.67;0.20;;;16.80;47.90;;;;;;20884233;28;80000;-74
2021/09/20 23:32:13;;;;;;;0.90;0.20;;;16.70;48.10;;;;;;20885296;28;81033;-73
2021/09/20 23:42:15;;;;;;;0.10;0.00;;;16.60;48.30;;;;;;20887518;28;81080;-75
2021/09/20 23:52:17;;;;;;;;;;;16.50;48.50;;;;;;20897623;28;80816;-72
